createdAt,value
2018-04-29T00:00:20.820Z,101328.78
2018-04-29T00:02:47.700Z,101323.27
2018-04-29T00:05:14.605Z,101323.03
2018-04-29T00:07:41.838Z,101318.24
2018-04-29T00:10:08.700Z,101321.06
2018-04-29T00:12:35.544Z,101312.89
2018-04-29T00:15:02.472Z,101303.84
2018-04-29T00:17:29.311Z,101298.93
2018-04-29T00:19:56.177Z,101300.41
2018-04-29T00:22:23.063Z,101304.87
2018-04-29T00:24:49.923Z,101306.60
2018-04-29T00:27:17.563Z,101300.66
2018-04-29T00:29:44.453Z,101303.05
2018-04-29T00:32:11.302Z,101298.72
2018-04-29T00:34:38.169Z,101295.58
2018-04-29T00:37:05.896Z,101300.45
2018-04-29T00:39:32.837Z,101304.02
2018-04-29T00:42:00.423Z,101308.53
2018-04-29T00:44:27.453Z,101315.67
2018-04-29T00:46:55.037Z,101305.39
2018-04-29T00:49:21.888Z,101311.34
2018-04-29T00:52:06.124Z,101311.16
2018-04-29T00:54:32.996Z,101301.70
2018-04-29T00:56:59.868Z,101304.96
2018-04-29T00:59:26.774Z,101304.67
2018-04-29T01:01:53.617Z,101305.80
2018-04-29T01:04:20.516Z,101312.59
2018-04-29T01:06:47.557Z,101317.72
2018-04-29T01:09:14.401Z,101310.12
2018-04-29T01:11:41.265Z,101310.98
2018-04-29T01:14:08.989Z,101313.11
2018-04-29T01:16:35.827Z,101313.81
2018-04-29T01:19:02.696Z,101313.91
2018-04-29T01:21:29.787Z,101320.30
2018-04-29T01:23:56.646Z,101317.20
2018-04-29T01:26:23.487Z,101326.53
2018-04-29T01:28:50.395Z,101327.18
2018-04-29T01:31:17.974Z,101327.98
2018-04-29T01:33:44.817Z,101329.75
2018-04-29T01:36:11.748Z,101327.09
2018-04-29T01:38:39.345Z,101321.34
2018-04-29T01:41:06.809Z,101321.87
2018-04-29T01:43:33.687Z,101323.80
2018-04-29T01:46:00.550Z,101319.45
2018-04-29T01:48:27.388Z,101322.47
2018-04-29T01:50:54.289Z,101318.45
2018-04-29T01:53:21.129Z,101315.75
2018-04-29T01:55:47.993Z,101310.84
2018-04-29T01:58:14.884Z,101305.13
2018-04-29T02:00:42.452Z,101307.50
2018-04-29T02:03:10.045Z,101312.41
2018-04-29T02:05:36.964Z,101313.81
2018-04-29T02:08:03.876Z,101312.08
2018-04-29T02:10:30.717Z,101311.55
2018-04-29T02:12:57.627Z,101308.68
2018-04-29T02:15:24.474Z,101311.16
2018-04-29T02:17:51.322Z,101309.02
2018-04-29T02:20:18.221Z,101310.05
2018-04-29T02:22:45.821Z,101312.47
2018-04-29T02:25:12.682Z,101314.02
2018-04-29T02:27:39.707Z,101313.52
2018-04-29T02:30:06.572Z,101301.63
2018-04-29T02:32:33.412Z,101309.22
2018-04-29T02:35:00.290Z,101303.75
2018-04-29T02:37:27.196Z,101304.44
2018-04-29T02:39:54.064Z,101310.75
2018-04-29T02:42:21.071Z,101314.81
2018-04-29T02:44:47.972Z,101304.75
2018-04-29T02:47:14.828Z,101296.51
2018-04-29T02:49:41.710Z,101294.78
2018-04-29T02:52:08.581Z,101295.81
2018-04-29T02:54:35.419Z,101296.92
2018-04-29T02:57:02.354Z,101297.00
2018-04-29T02:59:29.207Z,101300.09
2018-04-29T03:01:56.102Z,101298.25
2018-04-29T03:04:23.844Z,101302.86
2018-04-29T03:06:50.709Z,101300.48
2018-04-29T03:09:18.303Z,101297.09
2018-04-29T03:11:45.193Z,101284.83
2018-04-29T03:14:12.040Z,101291.22
2018-04-29T03:16:38.879Z,101291.88
2018-04-29T03:19:05.867Z,101291.48
2018-04-29T03:21:32.731Z,101285.02
2018-04-29T03:23:59.580Z,101287.36
2018-04-29T03:26:26.560Z,101284.98
2018-04-29T03:28:53.416Z,101284.08
2018-04-29T03:31:20.275Z,101287.94
2018-04-29T03:33:47.251Z,101282.62
2018-04-29T03:36:14.108Z,101283.69
2018-04-29T03:38:40.951Z,101279.98
2018-04-29T03:41:09.864Z,101284.63
2018-04-29T03:43:36.791Z,101288.48
2018-04-29T03:46:03.693Z,101285.76
2018-04-29T03:48:30.715Z,101273.14
2018-04-29T03:50:57.560Z,101264.54
2018-04-29T03:53:24.396Z,101265.53
2018-04-29T03:55:51.285Z,101267.02
2018-04-29T03:58:37.199Z,101273.14
2018-04-29T04:01:22.644Z,101273.05
2018-04-29T04:03:58.070Z,101273.97
2018-04-29T04:06:24.983Z,101272.14
2018-04-29T04:08:51.855Z,101274.85
2018-04-29T04:11:18.721Z,101264.06
2018-04-29T04:13:45.612Z,101271.95
2018-04-29T04:16:12.516Z,101271.95
2018-04-29T04:18:39.372Z,101266.14
2018-04-29T04:21:07.000Z,101268.56
2018-04-29T04:23:33.899Z,101276.55
2018-04-29T04:26:01.495Z,101279.90
2018-04-29T04:28:28.510Z,101279.48
2018-04-29T04:30:55.353Z,101279.93
2018-04-29T04:33:22.199Z,101280.42
2018-04-29T04:35:49.108Z,101284.13
2018-04-29T04:38:16.013Z,101290.38
2018-04-29T04:40:42.855Z,101291.30
2018-04-29T04:43:09.847Z,101295.68
2018-04-29T04:45:37.524Z,101292.19
2018-04-29T04:48:05.104Z,101271.06
2018-04-29T04:50:31.983Z,101252.89
2018-04-29T04:52:58.836Z,101276.61
2018-04-29T04:55:25.688Z,101288.02
2018-04-29T04:57:52.748Z,101285.06
2018-04-29T05:00:19.593Z,101285.83
2018-04-29T05:02:46.448Z,101296.73
2018-04-29T05:05:13.420Z,101298.88
2018-04-29T05:07:40.295Z,101304.88
2018-04-29T05:10:07.138Z,101304.52
2018-04-29T05:12:34.025Z,101306.77
2018-04-29T05:15:00.873Z,101304.97
2018-04-29T05:17:27.719Z,101300.38
2018-04-29T05:19:54.640Z,101301.70
2018-04-29T05:22:21.491Z,101299.85
2018-04-29T05:24:48.396Z,101297.52
2018-04-29T05:27:15.312Z,101299.24
2018-04-29T05:29:42.899Z,101307.13
2018-04-29T05:32:09.785Z,101311.89
2018-04-29T05:34:36.633Z,101308.80
2018-04-29T05:37:03.510Z,101301.44
2018-04-29T05:39:31.205Z,101303.52
2018-04-29T05:41:58.095Z,101297.83
2018-04-29T05:44:24.944Z,101305.24
2018-04-29T05:46:51.828Z,101295.71
2018-04-29T05:49:18.673Z,101296.59
2018-04-29T05:51:45.561Z,101300.40
2018-04-29T05:54:12.613Z,101304.95
2018-04-29T05:56:39.464Z,101307.48
2018-04-29T05:59:06.319Z,101306.67
2018-04-29T06:01:33.199Z,101312.59
2018-04-29T06:04:00.049Z,101319.88
2018-04-29T06:06:26.969Z,101312.27
2018-04-29T06:08:53.813Z,101312.87
2018-04-29T06:11:21.387Z,101313.95
2018-04-29T06:13:48.976Z,101319.02
2018-04-29T06:16:15.868Z,101319.89
2018-04-29T06:18:42.761Z,101318.09
2018-04-29T06:21:09.636Z,101319.67
2018-04-29T06:23:37.443Z,101327.04
2018-04-29T06:26:04.698Z,101323.80
2018-04-29T06:28:31.523Z,101334.19
2018-04-29T06:30:59.127Z,101334.64
2018-04-29T06:33:26.023Z,101331.36
2018-04-29T06:35:52.871Z,101331.60
2018-04-29T06:38:19.756Z,101321.89
2018-04-29T06:40:46.671Z,101323.66
2018-04-29T06:43:14.307Z,101324.01
2018-04-29T06:45:41.165Z,101322.98
2018-04-29T06:48:08.060Z,101319.93
2018-04-29T06:50:34.917Z,101322.55
2018-04-29T06:53:01.755Z,101315.87
2018-04-29T06:55:28.639Z,101301.97
2018-04-29T06:57:55.481Z,101308.42
2018-04-29T07:00:22.325Z,101309.66
2018-04-29T07:02:49.208Z,101302.31
2018-04-29T07:05:16.785Z,101297.62
2018-04-29T07:07:44.917Z,101306.78
2018-04-29T07:10:12.212Z,101302.77
2018-04-29T07:12:39.059Z,101298.75
2018-04-29T07:15:05.891Z,101289.03
2018-04-29T07:17:32.913Z,101287.09
2018-04-29T07:19:59.818Z,101285.29
2018-04-29T07:22:27.363Z,101283.50
2018-04-29T07:24:55.444Z,101288.08
2018-04-29T07:27:23.029Z,101284.14
2018-04-29T07:29:49.989Z,101279.75
2018-04-29T07:32:17.648Z,101268.34
2018-04-29T07:34:44.511Z,101270.91
2018-04-29T07:37:11.360Z,101277.42
2018-04-29T07:39:38.992Z,101280.37
2018-04-29T07:42:05.829Z,101279.97
2018-04-29T07:44:32.711Z,101278.34
2018-04-29T07:46:59.575Z,101280.39
2018-04-29T07:49:27.152Z,101268.52
2018-04-29T07:51:53.985Z,101261.03
2018-04-29T07:54:20.913Z,101260.45
2018-04-29T07:56:48.504Z,101258.83
2018-04-29T07:59:15.344Z,101251.09
2018-04-29T08:01:42.312Z,101258.01
2018-04-29T08:04:09.151Z,101267.09
2018-04-29T08:06:36.000Z,101265.06
2018-04-29T08:09:03.152Z,101257.12
2018-04-29T08:11:29.997Z,101259.75
2018-04-29T08:13:56.844Z,101260.70
2018-04-29T08:16:23.732Z,101260.83
2018-04-29T08:18:51.321Z,101265.40
2018-04-29T08:21:18.214Z,101271.55
2018-04-29T08:23:45.123Z,101272.09
2018-04-29T08:26:11.986Z,101275.56
2018-04-29T08:28:39.575Z,101271.88
2018-04-29T08:31:06.471Z,101266.75
2018-04-29T08:33:33.373Z,101271.53
2018-04-29T08:36:00.224Z,101271.73
2018-04-29T08:38:27.309Z,101277.56
2018-04-29T08:40:54.165Z,101269.31
2018-04-29T08:43:21.073Z,101260.81
2018-04-29T08:45:47.938Z,101257.68
2018-04-29T08:48:14.784Z,101271.97
2018-04-29T08:50:41.625Z,101274.16
2018-04-29T08:53:08.657Z,101269.64
2018-04-29T08:55:36.253Z,101265.06
2018-04-29T08:58:03.102Z,101257.41
2018-04-29T09:00:29.984Z,101252.16
2018-04-29T09:02:56.840Z,101247.45
2018-04-29T09:05:23.684Z,101252.03
2018-04-29T09:07:50.570Z,101241.15
2018-04-29T09:10:17.765Z,101250.72
2018-04-29T09:12:45.289Z,101255.90
2018-04-29T09:15:12.537Z,101249.72
2018-04-29T09:17:39.395Z,101253.22
2018-04-29T09:20:06.293Z,101249.32
2018-04-29T09:22:33.949Z,101241.38
2018-04-29T09:25:01.540Z,101229.16
2018-04-29T09:27:28.384Z,101237.36
2018-04-29T09:29:55.276Z,101246.89
2018-04-29T09:32:22.112Z,101244.95
2018-04-29T09:34:48.953Z,101248.59
2018-04-29T09:37:15.961Z,101233.66
2018-04-29T09:39:42.809Z,101227.92
2018-04-29T09:42:09.708Z,101224.20
2018-04-29T09:44:36.635Z,101227.87
2018-04-29T09:47:03.488Z,101218.19
2018-04-29T09:49:30.381Z,101225.59
2018-04-29T09:51:58.037Z,101229.08
2018-04-29T09:54:25.641Z,101231.48
2018-04-29T09:56:52.483Z,101235.36
2018-04-29T09:59:19.417Z,101227.78
2018-04-29T10:01:52.167Z,101224.84
2018-04-29T10:04:19.800Z,101212.97
2018-04-29T10:06:46.651Z,101209.38
2018-04-29T10:09:13.506Z,101210.50
2018-04-29T10:11:40.404Z,101198.86
2018-04-29T10:14:07.256Z,101202.10
2018-04-29T10:16:34.209Z,101209.28
2018-04-29T10:19:01.113Z,101211.00
2018-04-29T10:21:28.708Z,101206.06
2018-04-29T10:23:55.560Z,101201.58
2018-04-29T10:26:22.447Z,101204.38
2018-04-29T10:28:49.291Z,101195.34
2018-04-29T10:31:16.136Z,101188.73
2018-04-29T10:33:43.092Z,101183.09
2018-04-29T10:36:10.680Z,101185.92
2018-04-29T10:38:38.343Z,101184.33
2018-04-29T10:41:05.295Z,101188.38
2018-04-29T10:43:32.852Z,101191.53
2018-04-29T10:45:59.693Z,101180.05
2018-04-29T10:48:26.579Z,101178.12
2018-04-29T10:50:53.452Z,101176.58
2018-04-29T10:53:21.029Z,101175.70
2018-04-29T10:55:48.647Z,101177.60
2018-04-29T10:58:15.501Z,101171.59
2018-04-29T11:00:42.402Z,101169.50
2018-04-29T11:03:09.302Z,101163.56
2018-04-29T11:05:36.161Z,101163.36
2018-04-29T11:08:03.789Z,101155.03
2018-04-29T11:10:30.683Z,101156.02
2018-04-29T11:12:57.537Z,101154.41
2018-04-29T11:15:24.409Z,101157.49
2018-04-29T11:17:51.424Z,101146.72
2018-04-29T11:20:18.269Z,101140.64
2018-04-29T11:22:45.104Z,101132.77
2018-04-29T11:25:12.739Z,101131.10
2018-04-29T11:27:39.609Z,101128.09
2018-04-29T11:30:07.213Z,101121.64
2018-04-29T11:32:34.112Z,101120.78
2018-04-29T11:35:01.712Z,101117.73
2018-04-29T11:37:28.557Z,101116.46
2018-04-29T11:39:55.449Z,101104.73
2018-04-29T11:42:22.318Z,101099.41
2018-04-29T11:44:49.180Z,101091.14
2018-04-29T11:47:16.072Z,101080.33
2018-04-29T11:49:43.021Z,101086.67
2018-04-29T11:52:09.917Z,101077.94
2018-04-29T11:54:36.863Z,101055.70
2018-04-29T11:57:03.784Z,101044.33
2018-04-29T11:59:30.613Z,101052.25
2018-04-29T12:01:57.563Z,101060.84
2018-04-29T12:04:24.369Z,101068.50
2018-04-29T12:06:51.223Z,101072.91
2018-04-29T12:09:18.120Z,101087.02
2018-04-29T12:11:45.285Z,101079.16
2018-04-29T12:14:12.127Z,101081.27
2018-04-29T12:16:39.160Z,101076.67
2018-04-29T12:19:06.847Z,101072.92
2018-04-29T12:21:33.687Z,101074.45
2018-04-29T12:24:00.917Z,101064.31
2018-04-29T12:26:28.782Z,101053.94
2018-04-29T12:28:56.856Z,101048.24
2018-04-29T12:31:24.495Z,101043.16
2018-04-29T12:33:51.385Z,101044.92
2018-04-29T12:36:18.235Z,101032.02
2018-04-29T12:38:45.336Z,101030.79
2018-04-29T12:41:12.190Z,101031.00
2018-04-29T12:43:39.054Z,101024.13
2018-04-29T12:46:07.552Z,101014.00
2018-04-29T12:48:34.707Z,101007.98
2018-04-29T12:51:03.126Z,101008.55
2018-04-29T12:53:30.037Z,101004.62
2018-04-29T12:55:57.727Z,100996.87
2018-04-29T12:58:24.591Z,100990.36
2018-04-29T13:00:51.498Z,100980.34
2018-04-29T13:03:18.349Z,100984.22
2018-04-29T13:05:45.267Z,100979.80
2018-04-29T13:08:12.123Z,100978.02
2018-04-29T13:10:39.060Z,100976.80
2018-04-29T13:13:05.940Z,100969.65
2018-04-29T13:15:32.824Z,100955.39
2018-04-29T13:18:00.036Z,100956.41
2018-04-29T13:20:27.090Z,100950.64
2018-04-29T13:22:53.979Z,100956.67
2018-04-29T13:25:21.645Z,100949.08
2018-04-29T13:27:48.516Z,100940.31
2018-04-29T13:30:15.699Z,100941.41
2018-04-29T13:32:42.553Z,100940.44
2018-04-29T13:35:09.384Z,100932.53
2018-04-29T13:37:36.256Z,100919.28
2018-04-29T13:40:03.206Z,100916.77
2018-04-29T13:42:30.063Z,100909.70
2018-04-29T13:44:57.681Z,100914.15
2018-04-29T13:47:24.529Z,100917.55
2018-04-29T13:49:51.388Z,100909.04
2018-04-29T13:52:18.333Z,100900.52
2018-04-29T13:54:45.152Z,100889.01
2018-04-29T13:57:11.986Z,100882.02
2018-04-29T13:59:38.875Z,100876.75
2018-04-29T14:02:05.729Z,100876.03
2018-04-29T14:04:32.576Z,100876.83
2018-04-29T14:07:00.208Z,100869.38
2018-04-29T14:09:27.045Z,100875.82
2018-04-29T14:11:53.890Z,100868.63
2018-04-29T14:14:20.864Z,100866.97
2018-04-29T14:16:47.701Z,100859.98
2018-04-29T14:19:14.776Z,100862.27
2018-04-29T14:21:41.738Z,100853.13
2018-04-29T14:24:08.588Z,100861.61
2018-04-29T14:26:35.428Z,100857.09
2018-04-29T14:29:02.400Z,100851.34
2018-04-29T14:31:29.237Z,100846.81
2018-04-29T14:33:56.075Z,100834.00
2018-04-29T14:36:22.987Z,100830.83
2018-04-29T14:38:49.883Z,100824.67
2018-04-29T14:41:16.728Z,100816.33
2018-04-29T14:43:43.613Z,100818.02
2018-04-29T14:46:11.210Z,100806.78
2018-04-29T14:48:38.056Z,100800.67
2018-04-29T14:51:04.962Z,100798.58
2018-04-29T14:53:31.826Z,100800.30
2018-04-29T14:55:59.469Z,100799.72
2018-04-29T14:58:26.312Z,100794.83
2018-04-29T15:00:53.357Z,100790.09
2018-04-29T15:03:20.196Z,100793.09
2018-04-29T15:05:47.089Z,100782.30
2018-04-29T15:08:13.940Z,100784.39
2018-04-29T15:10:40.795Z,100796.41
2018-04-29T15:13:08.060Z,100793.48
2018-04-29T15:15:34.905Z,100790.19
2018-04-29T15:18:01.993Z,100790.01
2018-04-29T15:20:28.916Z,100798.78
2018-04-29T15:22:55.859Z,100801.39
2018-04-29T15:25:22.700Z,100796.47
2018-04-29T15:27:49.608Z,100800.15
2018-04-29T15:30:17.745Z,100808.36
2018-04-29T15:32:44.992Z,100814.30
2018-04-29T15:35:11.864Z,100808.72
2018-04-29T15:37:39.443Z,100810.62
2018-04-29T15:40:06.287Z,100803.03
2018-04-29T15:42:34.575Z,100797.28
2018-04-29T15:45:01.420Z,100794.83
2018-04-29T15:47:28.341Z,100798.44
2018-04-29T15:49:55.251Z,100789.77
2018-04-29T15:52:22.104Z,100788.89
2018-04-29T15:54:48.950Z,100790.47
2018-04-29T15:57:15.838Z,100796.17
2018-04-29T15:59:42.707Z,100784.38
2018-04-29T16:02:10.616Z,100780.41
2018-04-29T16:04:38.260Z,100774.55
2018-04-29T16:07:05.101Z,100775.97
2018-04-29T16:09:31.947Z,100767.69
2018-04-29T16:11:58.846Z,100762.30
2018-04-29T16:14:25.704Z,100764.44
2018-04-29T16:16:52.555Z,100760.36
2018-04-29T16:19:19.579Z,100759.06
2018-04-29T16:21:46.483Z,100740.59
2018-04-29T16:24:13.371Z,100721.42
2018-04-29T16:26:40.305Z,100722.81
2018-04-29T16:29:07.888Z,100710.27
2018-04-29T16:31:34.775Z,100699.88
2018-04-29T16:34:01.692Z,100692.53
2018-04-29T16:36:28.544Z,100695.95
2018-04-29T16:38:56.221Z,100683.14
2018-04-29T16:41:23.084Z,100687.02
2018-04-29T16:43:50.037Z,100675.41
2018-04-29T16:46:17.013Z,100689.13
2018-04-29T16:48:43.862Z,100688.86
2018-04-29T16:51:10.727Z,100678.95
2018-04-29T16:53:37.667Z,100676.96
2018-04-29T16:56:04.516Z,100684.52
2018-04-29T16:58:31.369Z,100672.87
2018-04-29T17:00:58.242Z,100664.72
2018-04-29T17:03:25.100Z,100668.39
2018-04-29T17:05:51.983Z,100667.00
2018-04-29T17:08:19.022Z,100668.28
2018-04-29T17:10:45.881Z,100671.93
2018-04-29T17:13:12.723Z,100670.97
2018-04-29T17:15:39.619Z,100675.13
2018-04-29T17:18:06.468Z,100665.84
2018-04-29T17:20:33.311Z,100663.01
2018-04-29T17:23:00.242Z,100661.00
2018-04-29T17:25:27.088Z,100659.67
2018-04-29T17:27:53.960Z,100659.31
2018-04-29T17:30:21.724Z,100652.80
2018-04-29T17:32:49.312Z,100652.73
2018-04-29T17:35:16.147Z,100654.72
2018-04-29T17:37:43.054Z,100649.27
2018-04-29T17:40:09.904Z,100653.14
2018-04-29T17:42:36.751Z,100654.75
2018-04-29T17:45:03.672Z,100647.63
2018-04-29T17:47:30.520Z,100646.70
2018-04-29T17:49:57.367Z,100645.97
2018-04-29T17:52:24.258Z,100642.14
2018-04-29T17:54:51.846Z,100643.09
2018-04-29T17:57:18.721Z,100656.56
2018-04-29T17:59:45.620Z,100651.05
2018-04-29T18:02:12.501Z,100648.81
2018-04-29T18:04:39.356Z,100652.77
2018-04-29T18:07:06.375Z,100655.06
2018-04-29T18:09:33.261Z,100648.40
2018-04-29T18:12:00.152Z,100646.78
2018-04-29T18:14:27.039Z,100650.67
2018-04-29T18:16:53.877Z,100654.39
2018-04-29T18:19:20.727Z,100651.95
2018-04-29T18:21:47.610Z,100645.59
2018-04-29T18:24:15.190Z,100641.07
2018-04-29T18:26:42.031Z,100638.45
2018-04-29T18:29:08.900Z,100641.91
2018-04-29T18:31:35.781Z,100636.80
2018-04-29T18:34:02.629Z,100642.66
2018-04-29T18:36:29.477Z,100651.52
2018-04-29T18:38:56.443Z,100651.09
2018-04-29T18:41:24.014Z,100648.48
2018-04-29T18:43:50.852Z,100645.76
2018-04-29T18:46:18.579Z,100648.48
2018-04-29T18:48:45.415Z,100647.77
2018-04-29T18:51:12.516Z,100649.88
2018-04-29T18:53:39.227Z,100662.59
2018-04-29T18:56:06.817Z,100662.86
2018-04-29T18:58:33.656Z,100660.08
2018-04-29T19:01:01.276Z,100664.35
2018-04-29T19:03:28.118Z,100662.20
2018-04-29T19:05:59.001Z,100667.25
2018-04-29T19:08:26.655Z,100661.98
2018-04-29T19:10:54.240Z,100658.26
2018-04-29T19:13:21.120Z,100664.64
2018-04-29T19:15:48.000Z,100659.73
2018-04-29T19:18:15.592Z,100661.97
2018-04-29T19:20:42.500Z,100657.59
2018-04-29T19:23:09.423Z,100658.77
2018-04-29T19:25:36.291Z,100653.90
2018-04-29T19:28:03.222Z,100658.52
2018-04-29T19:30:30.061Z,100656.71
2018-04-29T19:32:56.893Z,100654.17
2018-04-29T19:35:23.972Z,100653.50
2018-04-29T19:37:50.817Z,100656.56
2018-04-29T19:40:17.660Z,100643.56
2018-04-29T19:42:44.547Z,100634.37
2018-04-29T19:45:11.380Z,100640.29
2018-04-29T19:47:38.255Z,100634.59
2018-04-29T19:50:05.199Z,100637.81
2018-04-29T19:52:32.118Z,100637.00
2018-04-29T19:54:58.952Z,100626.39
2018-04-29T19:57:27.295Z,100620.36
2018-04-29T19:59:54.312Z,100626.05
2018-04-29T20:02:21.149Z,100616.25
2018-04-29T20:04:48.047Z,100614.08
2018-04-29T20:07:15.096Z,100611.75
2018-04-29T20:09:41.928Z,100608.69
2018-04-29T20:12:08.812Z,100603.50
2018-04-29T20:14:36.388Z,100603.32
2018-04-29T20:17:03.298Z,100594.92
2018-04-29T20:19:30.293Z,100594.55
2018-04-29T20:21:58.215Z,100588.90
2018-04-29T20:24:25.829Z,100595.61
2018-04-29T20:26:52.775Z,100581.67
2018-04-29T20:29:19.618Z,100584.08
2018-04-29T20:31:46.462Z,100582.47
2018-04-29T20:34:13.447Z,100580.95
2018-04-29T20:36:41.079Z,100578.18
2018-04-29T20:39:08.728Z,100570.92
2018-04-29T20:41:35.627Z,100573.87
2018-04-29T20:44:02.512Z,100560.91
2018-04-29T20:46:29.385Z,100560.70
2018-04-29T20:48:56.251Z,100558.76
2018-04-29T20:51:23.089Z,100547.95
2018-04-29T20:53:49.947Z,100552.66
2018-04-29T20:56:18.344Z,100544.82
2018-04-29T20:58:45.583Z,100537.16
2018-04-29T21:01:12.408Z,100539.11
2018-04-29T21:03:39.394Z,100539.11
2018-04-29T21:06:06.993Z,100539.11
2018-04-29T21:08:33.973Z,100524.58
2018-04-29T21:11:00.988Z,100518.32
2018-04-29T21:13:28.561Z,100517.72
2018-04-29T21:15:56.143Z,100507.30
2018-04-29T21:18:23.036Z,100501.63
2018-04-29T21:20:49.887Z,100495.92
2018-04-29T21:23:16.728Z,100486.70
2018-04-29T21:25:43.634Z,100481.61
2018-04-29T21:28:10.579Z,100473.95
2018-04-29T21:30:37.436Z,100474.33
2018-04-29T21:33:04.355Z,100465.44
2018-04-29T21:35:31.199Z,100466.63
2018-04-29T21:37:58.083Z,100460.91
2018-04-29T21:40:25.702Z,100450.14
2018-04-29T21:42:52.588Z,100445.22
2018-04-29T21:45:20.157Z,100436.19
2018-04-29T21:47:47.791Z,100436.19
2018-04-29T21:50:14.632Z,100431.91
2018-04-29T21:52:41.481Z,100425.39
2018-04-29T21:55:08.385Z,100435.20
2018-04-29T21:57:35.214Z,100432.03
2018-04-29T22:00:02.096Z,100439.06
2018-04-29T22:02:29.136Z,100437.69
2018-04-29T22:04:55.993Z,100434.34
2018-04-29T22:07:22.829Z,100427.06
2018-04-29T22:09:49.760Z,100422.56
2018-04-29T22:12:16.614Z,100418.62
2018-04-29T22:14:43.453Z,100418.43
2018-04-29T22:17:10.336Z,100418.40
2018-04-29T22:19:37.184Z,100424.30
2018-04-29T22:22:04.043Z,100428.02
2018-04-29T22:24:31.665Z,100426.63
2018-04-29T22:26:58.518Z,100433.51
2018-04-29T22:29:25.362Z,100432.45
2018-04-29T22:31:52.286Z,100424.45
2018-04-29T22:34:19.144Z,100424.98
2018-04-29T22:36:45.988Z,100417.03
2018-04-29T22:39:13.660Z,100418.70
2018-04-29T22:41:40.507Z,100412.24
2018-04-29T22:44:07.372Z,100404.84
2018-04-29T22:46:34.264Z,100394.67
2018-04-29T22:49:01.101Z,100380.56
2018-04-29T22:51:27.945Z,100376.46
2018-04-29T22:53:54.970Z,100374.22
2018-04-29T22:56:21.811Z,100359.78
2018-04-29T22:58:49.405Z,100358.81
2018-04-29T23:01:16.481Z,100350.80
2018-04-29T23:03:44.125Z,100350.82
2018-04-29T23:06:10.957Z,100354.32
2018-04-29T23:08:37.852Z,100354.51
2018-04-29T23:11:04.737Z,100362.53
2018-04-29T23:13:31.579Z,100349.45
2018-04-29T23:15:58.477Z,100339.46
2018-04-29T23:18:25.327Z,100342.36
2018-04-29T23:20:52.193Z,100335.77
2018-04-29T23:23:19.917Z,100336.34
2018-04-29T23:25:46.775Z,100330.86
2018-04-29T23:28:14.395Z,100329.30
2018-04-29T23:30:41.436Z,100331.23
2018-04-29T23:33:08.291Z,100323.44
2018-04-29T23:35:35.168Z,100319.50
2018-04-29T23:38:02.051Z,100308.14
2018-04-29T23:40:29.831Z,100296.61
2018-04-29T23:42:56.697Z,100296.42
2018-04-29T23:45:23.544Z,100283.86
2018-04-29T23:47:50.456Z,100287.00
2018-04-29T23:50:18.136Z,100281.14
2018-04-29T23:52:44.984Z,100272.91
2018-04-29T23:55:11.841Z,100279.01
2018-04-29T23:57:38.744Z,100276.44
